Time;durP1;ratioP1;P1;durP2;ratioP2;P2;SDS_P1;SDS_P2;PMS_P1;PMS_P2;Temp;Humidity;BMP_temperature;BMP_pressure;BME280_temperature;BME280_humidity;BME280_pressure;Samples;Min_cycle;Max_cycle;Signal;HPM_P1;HPM_P2
2021/09/28 00:01:17;;;;;;;;;;;;;;;14.61;70.88;100565.25;5032615;28;19979;-63
2021/09/28 00:04:03;;;;;;;;;;;;;;;14.60;70.84;100569.56;5033096;28;19944;-63
2021/09/28 00:06:47;;;;;;;;;;;;;;;14.60;70.83;100580.00;5032962;28;20348;-63
2021/09/28 00:09:31;;;;;;;;;;;;;;;14.58;70.76;100571.28;5033735;28;20320;-63
2021/09/28 00:12:17;;;;;;;;;;;;;;;14.57;70.84;100577.38;5033614;28;20292;-63
2021/09/28 00:15:01;;;;;;;;;;;;;;;14.58;70.63;100571.28;5032854;28;19928;-63
2021/09/28 00:17:46;;;;;;;;;;;;;;;14.57;70.81;100571.28;5033750;28;19928;-63
2021/09/28 00:20:32;;;;;;;;;;;;;;;14.55;70.73;100576.50;5033649;28;19947;-63
2021/09/28 00:23:16;;;;;;;;;;;;;;;14.54;70.84;100568.66;5033481;28;19967;-63
2021/09/28 00:26:02;;;;;;;;;;;;;;;14.53;70.61;100575.63;5033560;28;19967;-63
2021/09/28 00:28:46;;;;;;;;;;;;;;;14.53;70.74;100573.00;5032576;28;19928;-63
2021/09/28 00:31:33;;;;;;;;;;;;;;;14.52;70.62;100563.44;5033337;28;20431;-63
2021/09/28 00:34:18;;;;;;;;;;;;;;;14.51;70.85;100574.72;5032208;28;19936;-63
2021/09/28 00:37:04;;;;;;;;;;;;;;;14.50;70.78;100575.59;5032427;28;20408;-63
2021/09/28 00:39:48;;;;;;;;;;;;;;;14.47;70.60;100572.94;5034320;28;19928;-63
2021/09/28 00:42:32;;;;;;;;;;;;;;;14.47;70.59;100565.13;5036638;28;19928;-63
2021/09/28 00:45:16;;;;;;;;;;;;;;;14.48;70.73;100579.06;5037269;28;19928;-63
2021/09/28 00:48:00;;;;;;;;;;;;;;;14.44;70.55;100586.84;5036190;28;19970;-63
2021/09/28 00:50:44;;;;;;;;;;;;;;;14.44;70.54;100570.31;5037218;28;19975;-63
2021/09/28 00:53:28;;;;;;;;;;;;;;;14.42;70.64;100579.84;5037130;28;19927;-64
2021/09/28 00:56:15;;;;;;;;;;;;;;;14.40;70.38;100578.97;5036788;28;20040;-63
2021/09/28 00:59:02;;;;;;;;;;;;;;;14.38;70.53;100584.16;5036819;28;19945;-63
2021/09/28 01:01:47;;;;;;;;;;;;;;;14.38;70.29;100580.69;5036562;28;19928;-63
2021/09/28 01:04:30;;;;;;;;;;;;;;;14.38;70.33;100583.31;5036791;28;20399;-63
2021/09/28 01:07:15;;;;;;;;;;;;;;;14.36;70.35;100577.19;5036079;28;19928;-63
2021/09/28 01:09:59;;;;;;;;;;;;;;;14.37;70.23;100578.94;5036672;28;19972;-63
2021/09/28 01:12:43;;;;;;;;;;;;;;;14.37;70.27;100584.16;5036673;28;19944;-63
2021/09/28 01:15:27;;;;;;;;;;;;;;;14.32;70.42;100578.91;5036571;28;20395;-63
2021/09/28 01:18:11;;;;;;;;;;;;;;;14.30;70.32;100575.41;5035973;28;20361;-63
2021/09/28 01:20:55;;;;;;;;;;;;;;;14.30;70.34;100567.59;5036180;28;20292;-63
2021/09/28 01:23:49;;;;;;;;;;;;;;;14.27;70.30;100572.78;5036437;28;20403;-63
2021/09/28 01:26:33;;;;;;;;;;;;;;;14.29;70.43;100578.88;5035887;28;19932;-63
2021/09/28 01:29:17;;;;;;;;;;;;;;;14.27;70.35;100573.63;5035958;28;20359;-63
2021/09/28 01:32:01;;;;;;;;;;;;;;;14.26;70.43;100577.09;5035936;28;19975;-63
2021/09/28 01:34:45;;;;;;;;;;;;;;;14.25;70.42;100582.31;5035599;28;20015;-63
2021/09/28 01:37:28;;;;;;;;;;;;;;;14.25;70.16;100582.31;5036301;28;19944;-63
2021/09/28 01:40:13;;;;;;;;;;;;;;;14.24;70.30;100588.38;5035998;28;19928;-63
2021/09/28 01:42:56;;;;;;;;;;;;;;;14.22;70.42;100584.88;5036297;28;19928;-63
2021/09/28 01:45:41;;;;;;;;;;;;;;;14.22;70.17;100583.16;5034996;28;19971;-62
2021/09/28 01:48:38;;;;;;;;;;;;;;;14.23;70.16;100584.91;5035860;28;19928;-63
2021/09/28 01:51:22;;;;;;;;;;;;;;;14.23;70.34;100577.09;5034168;28;19928;-63
2021/09/28 01:54:06;;;;;;;;;;;;;;;14.23;70.44;100589.25;5035545;28;19928;-63
2021/09/28 01:56:50;;;;;;;;;;;;;;;14.21;70.38;100586.63;5034788;28;19967;-63
2021/09/28 01:59:34;;;;;;;;;;;;;;;14.22;70.22;100593.59;5034769;28;20008;-63
2021/09/28 02:02:18;;;;;;;;;;;;;;;14.21;70.34;100596.16;5035526;28;19928;-63
2021/09/28 02:05:02;;;;;;;;;;;;;;;14.21;70.28;100597.06;5035396;28;19944;-63
2021/09/28 02:07:45;;;;;;;;;;;;;;;14.20;70.36;100594.41;5034928;28;20380;-63
2021/09/28 02:10:30;;;;;;;;;;;;;;;14.18;70.08;100602.22;5036014;28;19927;-63
2021/09/28 02:13:14;;;;;;;;;;;;;;;14.19;70.11;100603.09;5035432;28;19928;-63
2021/09/28 02:15:59;;;;;;;;;;;;;;;14.18;70.25;100590.91;5034449;28;19928;-63
2021/09/28 02:18:45;;;;;;;;;;;;;;;14.16;70.36;100599.63;5035152;28;19975;-63
2021/09/28 02:21:29;;;;;;;;;;;;;;;14.17;70.24;100595.28;5034811;28;20296;-63
2021/09/28 02:24:13;;;;;;;;;;;;;;;14.17;70.09;100605.69;5035284;28;19986;-63
2021/09/28 02:26:57;;;;;;;;;;;;;;;14.18;70.14;100606.56;5034961;28;19932;-62
2021/09/28 02:29:41;;;;;;;;;;;;;;;14.16;70.18;100598.72;5034944;28;20008;-64
2021/09/28 02:32:25;;;;;;;;;;;;;;;14.15;70.12;100599.59;5035055;28;19928;-63
2021/09/28 02:35:10;;;;;;;;;;;;;;;14.14;70.04;100600.44;5035020;28;19975;-62
2021/09/28 02:37:56;;;;;;;;;;;;;;;14.14;70.18;100603.94;5035016;28;20074;-62
2021/09/28 02:40:40;;;;;;;;;;;;;;;14.13;69.95;100598.69;5034468;28;20438;-62
2021/09/28 02:43:24;;;;;;;;;;;;;;;14.12;70.27;100602.16;5034460;28;20304;-61
2021/09/28 02:46:10;;;;;;;;;;;;;;;14.11;70.24;100584.78;5034945;28;20367;-61
2021/09/28 02:48:54;;;;;;;;;;;;;;;14.11;70.19;100600.41;5034882;28;20403;-61
2021/09/28 02:51:38;;;;;;;;;;;;;;;14.10;70.02;100598.66;5033739;28;19928;-61
2021/09/28 02:54:22;;;;;;;;;;;;;;;14.10;70.20;100603.88;5033840;28;19932;-61
2021/09/28 02:57:06;;;;;;;;;;;;;;;14.07;70.03;100602.13;5034843;28;19975;-62
2021/09/28 02:59:50;;;;;;;;;;;;;;;14.04;69.89;100604.69;5034538;28;19927;-63
2021/09/28 03:02:34;;;;;;;;;;;;;;;14.04;69.85;100598.63;5033108;28;19967;-63
2021/09/28 03:05:17;;;;;;;;;;;;;;;14.04;70.11;100609.91;5034462;28;20400;-63
2021/09/28 03:08:04;;;;;;;;;;;;;;;14.01;69.79;100608.16;5034238;28;19974;-63
2021/09/28 03:10:48;;;;;;;;;;;;;;;14.01;69.94;100600.31;5033705;28;20464;-63
2021/09/28 03:13:32;;;;;;;;;;;;;;;14.00;69.80;100608.13;5033626;28;20028;-61
2021/09/28 03:16:16;;;;;;;;;;;;;;;13.99;69.74;100609.84;5033946;28;20008;-61
2021/09/28 03:19:00;;;;;;;;;;;;;;;13.98;69.77;100612.47;5033577;28;20040;-61
2021/09/28 03:21:44;;;;;;;;;;;;;;;13.97;69.74;100622.00;5034118;28;19944;-61
2021/09/28 03:24:27;;;;;;;;;;;;;;;13.95;70.07;100612.41;5034414;28;19931;-62
2021/09/28 03:27:11;;;;;;;;;;;;;;;13.96;69.68;100611.56;5034093;28;19974;-61
2021/09/28 03:29:55;;;;;;;;;;;;;;;13.96;69.78;100606.34;5033175;28;20399;-61
2021/09/28 03:32:39;;;;;;;;;;;;;;;13.94;69.72;100606.31;5032957;28;20281;-63
2021/09/28 03:35:23;;;;;;;;;;;;;;;13.95;69.80;100615.03;5034014;28;20399;-63
2021/09/28 03:38:06;;;;;;;;;;;;;;;13.91;69.81;100610.63;5034002;28;19929;-63
2021/09/28 03:40:50;;;;;;;;;;;;;;;13.90;69.79;100606.25;5033972;28;19967;-63
2021/09/28 03:43:34;;;;;;;;;;;;;;;13.90;69.70;100604.56;5033572;28;19931;-63
2021/09/28 03:46:21;;;;;;;;;;;;;;;13.90;69.69;100616.69;5033402;28;20008;-62
2021/09/28 03:49:05;;;;;;;;;;;;;;;13.90;69.96;100601.06;5033051;28;19975;-61
2021/09/28 03:51:49;;;;;;;;;;;;;;;13.87;69.66;100612.34;5033207;28;20427;-62
2021/09/28 03:54:33;;;;;;;;;;;;;;;13.88;69.73;100610.59;5033361;28;20039;-61
2021/09/28 03:57:21;;;;;;;;;;;;;;;13.86;69.75;100601.00;5033686;28;19928;-62
2021/09/28 04:00:06;;;;;;;;;;;;;;;13.85;69.64;100609.72;5032973;28;19963;-62
2021/09/28 04:02:49;;;;;;;;;;;;;;;13.83;69.55;100606.22;5033227;28;19983;-62
2021/09/28 04:05:33;;;;;;;;;;;;;;;13.83;69.51;100613.13;5033580;28;20331;-61
2021/09/28 04:08:17;;;;;;;;;;;;;;;13.82;69.69;100614.00;5034027;28;19987;-62
2021/09/28 04:11:01;;;;;;;;;;;;;;;13.82;69.70;100614.88;5033890;28;19929;-61
2021/09/28 04:13:47;;;;;;;;;;;;;;;13.82;69.62;100611.38;5033932;28;19927;-61
2021/09/28 04:16:32;;;;;;;;;;;;;;;13.81;69.58;100607.03;5036936;28;19928;-62
2021/09/28 04:19:16;;;;;;;;;;;;;;;13.79;69.64;100612.25;5037584;28;19928;-61
2021/09/28 04:21:59;;;;;;;;;;;;;;;13.78;69.79;100613.09;5037557;28;20446;-61
2021/09/28 04:24:44;;;;;;;;;;;;;;;13.80;69.63;100613.09;5037880;28;19975;-61
2021/09/28 04:27:27;;;;;;;;;;;;;;;13.79;69.74;100611.34;5037089;28;19974;-62
2021/09/28 04:30:11;;;;;;;;;;;;;;;13.78;69.46;100612.22;5037675;28;20331;-62
2021/09/28 04:32:55;;;;;;;;;;;;;;;13.78;69.73;100607.88;5037311;28;19928;-62
2021/09/28 04:35:39;;;;;;;;;;;;;;;13.77;69.43;100616.56;5036015;28;19928;-61
2021/09/28 04:38:23;;;;;;;;;;;;;;;13.76;69.44;100614.81;5037528;28;20063;-62
2021/09/28 04:41:07;;;;;;;;;;;;;;;13.75;69.60;100615.66;5037338;28;19928;-61
2021/09/28 04:43:53;;;;;;;;;;;;;;;13.74;69.38;100611.28;5037049;28;19928;-62
2021/09/28 04:46:40;;;;;;;;;;;;;;;13.74;69.54;100615.66;5037113;28;19983;-61
2021/09/28 04:49:24;;;;;;;;;;;;;;;13.74;69.77;100613.03;5036570;28;19928;-62
2021/09/28 04:52:10;;;;;;;;;;;;;;;13.73;69.54;100611.28;5036831;28;19963;-62
2021/09/28 04:54:54;;;;;;;;;;;;;;;13.72;69.62;100612.16;5036856;28;19927;-62
2021/09/28 04:57:38;;;;;;;;;;;;;;;13.70;69.39;100610.41;5036389;28;20018;-62
2021/09/28 05:00:22;;;;;;;;;;;;;;;13.70;69.41;100619.97;5036872;28;19966;-61
2021/09/28 05:03:06;;;;;;;;;;;;;;;13.71;69.39;100613.88;5035709;28;19960;-61
2021/09/28 05:05:50;;;;;;;;;;;;;;;13.69;69.36;100621.66;5036187;28;19936;-61
2021/09/28 05:08:34;;;;;;;;;;;;;;;13.67;69.40;100618.16;5036867;28;20403;-61
2021/09/28 05:11:18;;;;;;;;;;;;;;;13.65;69.42;100622.47;5036973;28;20300;-61
2021/09/28 05:14:02;;;;;;;;;;;;;;;13.65;69.66;100627.69;5036644;28;19927;-61
2021/09/28 05:16:45;;;;;;;;;;;;;;;13.66;69.20;100623.38;5036035;28;20311;-64
2021/09/28 05:19:29;;;;;;;;;;;;;;;13.62;69.28;100622.47;5036562;28;19928;-63
2021/09/28 05:22:13;;;;;;;;;;;;;;;13.65;69.41;100635.50;5035926;28;19927;-63
2021/09/28 05:24:57;;;;;;;;;;;;;;;13.64;69.34;100625.94;5036473;28;19932;-63
2021/09/28 05:27:41;;;;;;;;;;;;;;;13.64;69.53;100632.88;5033965;28;19928;-63
2021/09/28 05:30:25;;;;;;;;;;;;;;;13.62;69.32;100637.19;5035886;28;19928;-63
2021/09/28 05:33:09;;;;;;;;;;;;;;;13.63;69.65;100637.22;5035020;28;19928;-63
2021/09/28 05:35:55;;;;;;;;;;;;;;;13.62;69.25;100645.00;5035608;28;19927;-63
2021/09/28 05:38:39;;;;;;;;;;;;;;;13.60;69.30;100638.91;5035479;28;20312;-63
2021/09/28 05:41:23;;;;;;;;;;;;;;;13.59;69.42;100637.16;5035413;28;20296;-63
2021/09/28 05:44:07;;;;;;;;;;;;;;;13.58;69.24;100638.91;5036082;28;19928;-63
2021/09/28 05:46:51;;;;;;;;;;;;;;;13.58;69.40;100641.50;5035805;28;20300;-63
2021/09/28 05:49:36;;;;;;;;;;;;;;;13.56;69.43;100638.00;5036285;28;20293;-63
2021/09/28 05:52:21;;;;;;;;;;;;;;;13.56;69.27;100640.59;5035030;28;20011;-63
2021/09/28 05:55:05;;;;;;;;;;;;;;;13.55;69.31;100642.31;5035721;28;19936;-63
2021/09/28 05:57:49;;;;;;;;;;;;;;;13.55;69.20;100642.31;5034627;28;19928;-63
2021/09/28 06:00:33;;;;;;;;;;;;;;;13.55;69.07;100642.31;5035853;28;20435;-63
2021/09/28 06:03:20;;;;;;;;;;;;;;;13.55;69.30;100650.13;5034867;28;20284;-63
2021/09/28 06:06:04;;;;;;;;;;;;;;;13.55;69.47;100641.44;5034861;28;20018;-63
2021/09/28 06:08:48;;;;;;;;;;;;;;;13.55;69.31;100646.66;5034861;28;19990;-63
2021/09/28 06:11:32;;;;;;;;;;;;;;;13.54;69.50;100643.19;5035675;28;19972;-63
2021/09/28 06:14:16;;;;;;;;;;;;;;;13.56;69.45;100645.81;5035027;28;19971;-63
2021/09/28 06:17:01;;;;;;;;;;;;;;;13.53;69.33;100641.44;5034172;28;19947;-63
2021/09/28 06:19:45;;;;;;;;;;;;;;;13.54;69.40;100655.31;5034291;28;19928;-63
2021/09/28 06:22:29;;;;;;;;;;;;;;;13.54;69.45;100653.63;5035287;28;19927;-63
2021/09/28 06:25:15;;;;;;;;;;;;;;;13.54;69.50;100656.22;5034772;28;20287;-63
2021/09/28 06:27:59;;;;;;;;;;;;;;;13.54;69.36;100651.00;5034602;28;19970;-63
2021/09/28 06:30:43;;;;;;;;;;;;;;;13.55;69.54;100655.34;5034786;28;19937;-63
2021/09/28 06:33:29;;;;;;;;;;;;;;;13.56;69.57;100648.41;5035383;28;19928;-63
2021/09/28 06:36:14;;;;;;;;;;;;;;;13.55;69.45;100651.88;5034878;28;19928;-63
2021/09/28 06:38:57;;;;;;;;;;;;;;;13.55;69.58;100652.72;5034562;28;20404;-63
2021/09/28 06:41:41;;;;;;;;;;;;;;;13.57;69.57;100654.47;5034862;28;20339;-63
2021/09/28 06:44:25;;;;;;;;;;;;;;;13.57;69.68;100660.59;5034963;28;20048;-63
2021/09/28 06:47:10;;;;;;;;;;;;;;;13.58;69.49;100658.84;5034158;28;20378;-63
2021/09/28 06:49:54;;;;;;;;;;;;;;;13.57;69.59;100657.97;5034783;28;19928;-63
2021/09/28 06:52:38;;;;;;;;;;;;;;;13.57;69.61;100663.19;5034282;28;20415;-63
2021/09/28 06:55:21;;;;;;;;;;;;;;;13.58;69.49;100656.22;5034446;28;20467;-63
2021/09/28 06:58:05;;;;;;;;;;;;;;;13.58;69.40;100654.53;5034110;28;19971;-63
2021/09/28 07:00:50;;;;;;;;;;;;;;;13.59;69.77;100653.66;5034184;28;19932;-63
2021/09/28 07:03:37;;;;;;;;;;;;;;;13.59;69.63;100661.47;5033579;28;19931;-63
2021/09/28 07:06:22;;;;;;;;;;;;;;;13.59;69.76;100660.59;5034473;28;20010;-63
2021/09/28 07:09:06;;;;;;;;;;;;;;;13.60;69.69;100667.56;5033272;28;19947;-63
2021/09/28 07:11:50;;;;;;;;;;;;;;;13.59;69.69;100666.69;5034783;28;20063;-63
2021/09/28 07:14:33;;;;;;;;;;;;;;;13.61;69.66;100664.09;5034024;28;20023;-63
2021/09/28 07:17:17;;;;;;;;;;;;;;;13.60;69.78;100660.63;5032919;28;19979;-63
2021/09/28 07:20:05;;;;;;;;;;;;;;;13.63;69.91;100665.00;5034071;28;20446;-63
2021/09/28 07:22:49;;;;;;;;;;;;;;;13.64;69.72;100661.53;5033332;28;19948;-63
2021/09/28 07:25:33;;;;;;;;;;;;;;;13.64;70.04;100651.13;5033818;28;20003;-63
2021/09/28 07:28:16;;;;;;;;;;;;;;;13.65;69.99;100658.09;5034509;28;19929;-63
2021/09/28 07:31:00;;;;;;;;;;;;;;;13.66;69.87;100657.22;5033869;28;19928;-63
2021/09/28 07:33:44;;;;;;;;;;;;;;;13.66;69.74;100652.03;5033153;28;19927;-63
2021/09/28 07:36:28;;;;;;;;;;;;;;;13.66;69.93;100652.03;5033927;28;20044;-63
2021/09/28 07:39:14;;;;;;;;;;;;;;;13.65;69.94;100656.34;5033343;28;19928;-63
2021/09/28 07:41:57;;;;;;;;;;;;;;;13.68;69.93;100661.59;5032728;28;19927;-63
2021/09/28 07:44:41;;;;;;;;;;;;;;;13.68;69.90;100661.59;5034213;28;20334;-62
2021/09/28 07:47:25;;;;;;;;;;;;;;;13.70;70.03;100662.50;5034128;28;20367;-63
2021/09/28 07:50:09;;;;;;;;;;;;;;;13.69;70.00;100663.34;5033495;28;20292;-63
2021/09/28 07:52:53;;;;;;;;;;;;;;;13.72;70.00;100659.03;5033142;28;19927;-63
2021/09/28 07:55:37;;;;;;;;;;;;;;;13.73;69.98;100659.03;5033619;28;19928;-64
2021/09/28 07:58:26;;;;;;;;;;;;;;;13.75;70.15;100659.94;5034156;28;19928;-63
2021/09/28 08:01:11;;;;;;;;;;;;;;;13.76;69.95;100650.41;5032988;28;20007;-63
2021/09/28 08:03:54;;;;;;;;;;;;;;;13.77;70.08;100659.97;5033522;28;20433;-63
2021/09/28 08:06:38;;;;;;;;;;;;;;;13.77;70.10;100649.56;5033712;28;19932;-63
2021/09/28 08:09:22;;;;;;;;;;;;;;;13.79;70.04;100660.84;5032801;28;19975;-63
2021/09/28 08:12:07;;;;;;;;;;;;;;;13.79;70.02;100655.63;5032963;28;19944;-63
2021/09/28 08:14:51;;;;;;;;;;;;;;;13.82;70.17;100648.75;5033505;28;20307;-63
2021/09/28 08:17:36;;;;;;;;;;;;;;;13.84;70.25;100643.56;5033347;28;20308;-63
2021/09/28 08:20:22;;;;;;;;;;;;;;;13.85;70.13;100632.28;5032623;28;19928;-63
2021/09/28 08:23:05;;;;;;;;;;;;;;;13.88;70.07;100641.84;5032939;28;20071;-63
2021/09/28 08:31:43;;;;;;;;;;;;;;;13.93;70.41;100638.47;5033707;28;19982;-63
2021/09/28 08:34:27;;;;;;;;;;;;;;;13.94;70.33;100640.19;5032354;28;20024;-63
2021/09/28 08:37:13;;;;;;;;;;;;;;;13.96;70.51;100641.09;5032718;28;19988;-63
2021/09/28 08:39:57;;;;;;;;;;;;;;;13.98;70.50;100643.72;5033522;28;19947;-63
2021/09/28 08:42:41;;;;;;;;;;;;;;;14.00;70.39;100650.69;5033416;28;19928;-63
2021/09/28 08:45:25;;;;;;;;;;;;;;;14.00;70.45;100648.09;5031927;28;20303;-63
2021/09/28 08:48:18;;;;;;;;;;;;;;;14.03;70.60;100649.84;5033258;28;19943;-63
2021/09/28 08:51:01;;;;;;;;;;;;;;;14.04;70.67;100649.00;5033591;28;19944;-63
2021/09/28 08:53:48;;;;;;;;;;;;;;;14.07;70.52;100648.16;5032823;28;19945;-63
2021/09/28 08:56:32;;;;;;;;;;;;;;;14.09;70.60;100646.47;5032124;28;20300;-63
2021/09/28 08:59:18;;;;;;;;;;;;;;;14.09;70.52;100649.94;5033199;28;19928;-63
2021/09/28 09:02:06;;;;;;;;;;;;;;;14.12;70.60;100643.88;5035581;28;20000;-63
2021/09/28 09:05:03;;;;;;;;;;;;;;;14.13;70.56;100640.41;5036966;28;20430;-64
2021/09/28 09:07:58;;;;;;;;;;;;;;;14.14;70.61;100644.75;5036529;28;19927;-61
2021/09/28 09:10:42;;;;;;;;;;;;;;;14.17;70.67;100647.41;5036031;28;20404;-62
2021/09/28 09:13:33;;;;;;;;;;;;;;;14.17;70.49;100647.41;5035717;28;19971;-63
2021/09/28 09:16:17;;;;;;;;;;;;;;;14.22;70.67;100645.72;5036453;28;19929;-63
2021/09/28 09:19:11;;;;;;;;;;;;;;;14.24;70.74;100645.72;5036787;28;19947;-64
2021/09/28 09:21:57;;;;;;;;;;;;;;;14.26;70.57;100650.09;5035541;28;19928;-64
2021/09/28 09:24:44;;;;;;;;;;;;;;;14.27;70.45;100646.63;5036643;28;19936;-63
2021/09/28 09:27:29;;;;;;;;;;;;;;;14.28;70.78;100645.78;5036140;28;20016;-63
2021/09/28 09:30:21;;;;;;;;;;;;;;;14.32;70.43;100651.91;5036286;28;19948;-64
2021/09/28 09:33:05;;;;;;;;;;;;;;;14.31;70.55;100638.00;5035144;28;19928;-63
2021/09/28 09:35:55;;;;;;;;;;;;;;;14.34;70.48;100651.94;5035671;28;20018;-62
2021/09/28 09:38:43;;;;;;;;;;;;;;;14.37;70.35;100637.19;5035839;28;19928;-61
2021/09/28 09:41:28;;;;;;;;;;;;;;;14.37;70.39;100631.97;5035447;28;19971;-62
2021/09/28 09:44:13;;;;;;;;;;;;;;;14.37;70.60;100642.38;5034936;28;19928;-63
2021/09/28 09:46:59;;;;;;;;;;;;;;;14.38;70.36;100636.31;5036066;28;19967;-64
2021/09/28 09:49:45;;;;;;;;;;;;;;;14.38;70.36;100623.28;5035768;28;19971;-63
2021/09/28 09:52:31;;;;;;;;;;;;;;;14.40;70.50;100628.53;5036028;28;19979;-63
2021/09/28 09:55:30;;;;;;;;;;;;;;;14.40;70.40;100615.50;5035862;28;19929;-63
2021/09/28 09:58:15;;;;;;;;;;;;;;;14.40;70.44;100618.09;5034759;28;19971;-63
2021/09/28 10:00:59;;;;;;;;;;;;;;;14.40;70.58;100611.13;5034789;28;19932;-64
2021/09/28 10:03:44;;;;;;;;;;;;;;;14.42;70.58;100614.63;5036069;28;19928;-64
2021/09/28 10:06:28;;;;;;;;;;;;;;;14.44;70.67;100615.53;5034820;28;19947;-63
2021/09/28 10:09:20;;;;;;;;;;;;;;;14.47;70.67;100609.47;5035636;28;19976;-64
2021/09/28 10:12:08;;;;;;;;;;;;;;;14.45;70.63;100600.75;5034117;28;19928;-61
2021/09/28 10:15:04;;;;;;;;;;;;;;;14.46;70.71;100597.28;5034183;28;19928;-61
2021/09/28 10:17:48;;;;;;;;;;;;;;;14.46;70.51;100586.84;5035485;28;20403;-62
2021/09/28 10:20:32;;;;;;;;;;;;;;;14.48;70.50;100602.53;5035163;28;20039;-62
2021/09/28 10:23:21;;;;;;;;;;;;;;;14.48;70.66;100590.34;5035588;28;19960;-62
2021/09/28 10:26:14;;;;;;;;;;;;;;;14.49;70.52;100586.88;5034656;28;19927;-62
2021/09/28 10:29:18;;;;;;;;;;;;;;;14.51;70.41;100587.75;5034562;28;20018;-62
2021/09/28 10:32:26;;;;;;;;;;;;;;;14.52;70.50;100586.00;5034227;28;19928;-61
2021/09/28 10:35:12;;;;;;;;;;;;;;;14.51;70.43;100584.25;5032418;28;19928;-62
2021/09/28 10:38:04;;;;;;;;;;;;;;;14.52;70.47;100588.63;5033927;28;19928;-62
2021/09/28 10:40:48;;;;;;;;;;;;;;;14.52;70.48;100580.81;5034254;28;19928;-62
2021/09/28 10:43:32;;;;;;;;;;;;;;;14.52;70.37;100580.81;5033740;28;19927;-62
2021/09/28 10:46:36;;;;;;;;;;;;;;;14.52;70.44;100581.69;5034677;28;20012;-62
2021/09/28 10:49:21;;;;;;;;;;;;;;;14.53;70.31;100578.22;5033812;28;20016;-62
2021/09/28 10:52:21;;;;;;;;;;;;;;;14.53;70.36;100573.00;5033602;28;20035;-62
2021/09/28 10:55:11;;;;;;;;;;;;;;;14.53;70.48;100566.91;5034796;28;20430;-62
2021/09/28 10:58:01;;;;;;;;;;;;;;;14.54;70.25;100572.16;5033868;28;19928;-61
2021/09/28 11:00:45;;;;;;;;;;;;;;;14.56;70.36;100554.75;5033979;28;19988;-61
2021/09/28 11:03:42;;;;;;;;;;;;;;;14.57;70.33;100560.84;5034339;28;20404;-61
2021/09/28 11:06:41;;;;;;;;;;;;;;;14.58;70.17;100554.78;5034732;28;20051;-64
2021/09/28 11:09:28;;;;;;;;;;;;;;;14.59;70.08;100553.91;5034387;28;20391;-63
2021/09/28 11:12:13;;;;;;;;;;;;;;;14.61;70.08;100554.81;5033856;28;19927;-63
2021/09/28 11:14:57;;;;;;;;;;;;;;;14.61;70.14;100542.63;5034489;28;19983;-64
2021/09/28 11:17:41;;;;;;;;;;;;;;;14.63;70.12;100545.25;5033978;28;19928;-64
2021/09/28 11:20:31;;;;;;;;;;;;;;;14.64;70.09;100546.97;5034343;28;19932;-63
2021/09/28 11:23:15;;;;;;;;;;;;;;;14.65;70.19;100543.50;5033261;28;20328;-63
2021/09/28 11:25:59;;;;;;;;;;;;;;;14.66;70.08;100541.78;5034167;28;20304;-63
2021/09/28 11:28:50;;;;;;;;;;;;;;;14.67;70.10;100541.78;5034517;28;20280;-63
2021/09/28 11:31:35;;;;;;;;;;;;;;;14.68;70.14;100537.50;5033941;28;19967;-63
2021/09/28 11:34:28;;;;;;;;;;;;;;;14.68;70.06;100535.75;5033378;28;19999;-64
2021/09/28 11:37:12;;;;;;;;;;;;;;;14.69;70.12;100534.88;5033169;28;20438;-63
2021/09/28 11:39:56;;;;;;;;;;;;;;;14.69;69.93;100529.66;5034387;28;19928;-63
2021/09/28 11:42:40;;;;;;;;;;;;;;;14.69;70.08;100526.19;5033493;28;19928;-63
2021/09/28 11:45:30;;;;;;;;;;;;;;;14.70;70.13;100522.75;5034280;28;19932;-63
2021/09/28 11:48:14;;;;;;;;;;;;;;;14.71;69.99;100521.88;5032926;28;19944;-63
2021/09/28 11:51:05;;;;;;;;;;;;;;;14.71;70.12;100524.47;5033965;28;19944;-63
2021/09/28 11:53:50;;;;;;;;;;;;;;;14.70;70.02;100520.13;5032660;28;19975;-63
2021/09/28 11:56:38;;;;;;;;;;;;;;;14.72;69.99;100515.75;5032650;28;20437;-63
2021/09/28 11:59:25;;;;;;;;;;;;;;;14.72;69.88;100514.03;5033198;28;19928;-63
2021/09/28 12:02:10;;;;;;;;;;;;;;;14.71;70.00;100514.91;5032492;28;19947;-63
2021/09/28 12:05:25;;;;;;;;;;;;;;;14.73;69.94;100510.56;5033696;28;19969;-62
2021/09/28 12:08:18;;;;;;;;;;;;;;;14.74;69.90;100511.44;5033999;28;19928;-63
2021/09/28 12:11:04;;;;;;;;;;;;;;;14.74;69.80;100516.66;5033214;28;19946;-63
2021/09/28 12:13:48;;;;;;;;;;;;;;;14.74;69.70;100501.00;5032724;28;19928;-63
2021/09/28 12:16:37;;;;;;;;;;;;;;;14.74;69.74;100503.59;5033562;28;19927;-63
2021/09/28 12:19:24;;;;;;;;;;;;;;;14.74;69.79;100494.06;5032630;28;19948;-63
2021/09/28 12:22:09;;;;;;;;;;;;;;;14.76;69.81;100507.09;5032851;28;19928;-63
2021/09/28 12:24:56;;;;;;;;;;;;;;;14.77;69.76;100490.59;5033112;28;20020;-63
2021/09/28 12:27:50;;;;;;;;;;;;;;;14.77;69.67;100495.81;5033571;28;19928;-63
2021/09/28 12:30:50;;;;;;;;;;;;;;;14.78;69.71;100492.34;5033509;28;20298;-63
2021/09/28 12:33:34;;;;;;;;;;;;;;;14.79;69.67;100483.66;5033628;28;20426;-63
2021/09/28 12:36:20;;;;;;;;;;;;;;;14.79;69.67;100475.81;5034159;28;19971;-63
2021/09/28 12:39:11;;;;;;;;;;;;;;;14.79;69.66;100475.81;5036618;28;19947;-63
2021/09/28 12:41:55;;;;;;;;;;;;;;;14.82;69.72;100480.16;5037268;28;20471;-63
2021/09/28 12:44:42;;;;;;;;;;;;;;;14.82;69.80;100464.50;5037555;28;20438;-63
2021/09/28 12:47:29;;;;;;;;;;;;;;;14.83;69.87;100461.94;5036753;28;19928;-63
2021/09/28 12:50:23;;;;;;;;;;;;;;;14.84;69.63;100455.84;5035923;28;19948;-63
2021/09/28 12:53:12;;;;;;;;;;;;;;;14.85;69.74;100460.22;5035836;28;20387;-63
2021/09/28 12:55:55;;;;;;;;;;;;;;;14.88;69.71;100454.97;5036615;28;19952;-63
2021/09/28 12:58:39;;;;;;;;;;;;;;;14.88;69.80;100444.53;5036715;28;19947;-63
2021/09/28 13:01:23;;;;;;;;;;;;;;;14.88;69.66;100446.28;5036718;28;20021;-63
2021/09/28 13:04:12;;;;;;;;;;;;;;;14.89;69.74;100448.91;5035810;28;19971;-63
2021/09/28 13:06:56;;;;;;;;;;;;;;;14.89;69.72;100443.69;5036364;28;20008;-63
2021/09/28 13:09:40;;;;;;;;;;;;;;;14.90;69.75;100442.81;5035594;28;19927;-63
2021/09/28 13:12:26;;;;;;;;;;;;;;;14.90;69.59;100444.56;5036295;28;19991;-63
2021/09/28 13:15:12;;;;;;;;;;;;;;;14.91;69.57;100438.50;5035696;28;20423;-63
2021/09/28 13:17:56;;;;;;;;;;;;;;;14.90;69.73;100435.00;5036760;28;19992;-62
2021/09/28 13:20:43;;;;;;;;;;;;;;;14.92;69.52;100432.41;5036451;28;20435;-63
2021/09/28 13:23:27;;;;;;;;;;;;;;;14.91;69.62;100430.66;5035477;28;19928;-63
2021/09/28 13:26:11;;;;;;;;;;;;;;;14.92;69.65;100435.00;5036313;28;19928;-63
2021/09/28 13:28:55;;;;;;;;;;;;;;;14.91;69.65;100422.81;5036003;28;20443;-63
2021/09/28 13:31:43;;;;;;;;;;;;;;;14.92;69.48;100430.66;5035917;28;19932;-63
2021/09/28 13:34:27;;;;;;;;;;;;;;;14.94;69.46;100427.19;5035440;28;19928;-63
2021/09/28 13:37:11;;;;;;;;;;;;;;;14.92;69.45;100422.81;5035591;28;20287;-63
2021/09/28 13:39:55;;;;;;;;;;;;;;;14.94;69.52;100427.19;5036197;28;20383;-63
2021/09/28 13:42:39;;;;;;;;;;;;;;;14.92;69.63;100419.34;5036416;28;20019;-63
2021/09/28 13:45:23;;;;;;;;;;;;;;;14.94;69.51;100424.56;5036021;28;20283;-63
2021/09/28 13:48:10;;;;;;;;;;;;;;;14.94;69.62;100417.63;5035281;28;19929;-63
2021/09/28 13:50:54;;;;;;;;;;;;;;;14.95;69.64;100418.47;5035317;28;19928;-63
2021/09/28 13:53:38;;;;;;;;;;;;;;;14.94;69.60;100417.63;5035466;28;19959;-63
2021/09/28 13:56:22;;;;;;;;;;;;;;;14.96;69.36;100415.00;5035703;28;20012;-63
2021/09/28 13:59:06;;;;;;;;;;;;;;;14.96;69.53;100415.00;5035590;28;20027;-63
2021/09/28 14:01:50;;;;;;;;;;;;;;;14.96;69.48;100409.78;5035833;28;19927;-63
2021/09/28 14:04:34;;;;;;;;;;;;;;;14.97;69.44;100411.53;5035643;28;20292;-63
2021/09/28 14:07:18;;;;;;;;;;;;;;;14.98;69.39;100410.66;5035166;28;19971;-63
2021/09/28 14:10:04;;;;;;;;;;;;;;;14.98;69.47;100400.22;5034827;28;20288;-63
2021/09/28 14:12:53;;;;;;;;;;;;;;;14.99;69.38;100409.81;5034926;28;20026;-63
2021/09/28 14:15:37;;;;;;;;;;;;;;;14.99;69.43;100404.59;5034661;28;19967;-63